Time;durP1;ratioP1;P1;durP2;ratioP2;P2;SDS_P1;SDS_P2;PMS_P1;PMS_P2;Temp;Humidity;BMP_temperature;BMP_pressure;BME280_temperature;BME280_humidity;BME280_pressure;Samples;Min_cycle;Max_cycle;Signal;HPM_P1;HPM_P2
2023/10/10 00:01:43;;;;;;;56.80;45.03;;;;;;;;;;5015469;28;20618;-70
2023/10/10 00:04:11;;;;;;;65.77;46.17;;;;;;;;;;5017062;28;20211;-70
2023/10/10 00:06:38;;;;;;;52.40;44.63;;;;;;;;;;5017180;28;20262;-70
2023/10/10 00:09:05;;;;;;;63.07;44.77;;;;;;;;;;5015433;28;20278;-71
2023/10/10 00:11:31;;;;;;;59.83;45.10;;;;;;;;;;5016652;28;20726;-70
2023/10/10 00:14:07;;;;;;;55.97;43.83;;;;;;;;;;5015283;28;20223;-70
2023/10/10 00:16:37;;;;;;;58.57;44.13;;;;;;;;;;5016635;28;20163;-70
2023/10/10 00:22:04;;;;;;;57.43;45.13;;;;;;;;;;5007462;28;20234;-71
2023/10/10 00:24:30;;;;;;;63.57;46.43;;;;;;;;;;5016787;28;20708;-70
2023/10/10 00:27:06;;;;;;;57.57;44.67;;;;;;;;;;5016424;28;20172;-70
2023/10/10 00:29:33;;;;;;;60.17;47.17;;;;;;;;;;5015674;28;20195;-70
2023/10/10 00:32:09;;;;;;;59.47;46.27;;;;;;;;;;5017031;28;20179;-70
2023/10/10 00:34:37;;;;;;;69.40;45.90;;;;;;;;;;5016398;28;20225;-70
2023/10/10 00:37:08;;;;;;;57.60;45.40;;;;;;;;;;5015194;28;20724;-69
2023/10/10 00:39:36;;;;;;;57.27;45.83;;;;;;;;;;5016943;28;20628;-70
2023/10/10 00:42:08;;;;;;;60.00;45.20;;;;;;;;;;5016024;28;20199;-71
2023/10/10 00:44:37;;;;;;;57.10;44.93;;;;;;;;;;5014492;28;20282;-71
2023/10/10 00:47:04;;;;;;;60.23;45.13;;;;;;;;;;5015852;28;20172;-70
2023/10/10 00:49:34;;;;;;;59.70;45.93;;;;;;;;;;5015735;28;20195;-70
2023/10/10 00:52:06;;;;;;;57.33;45.47;;;;;;;;;;5015928;28;20156;-70
2023/10/10 00:54:38;;;;;;;62.33;46.53;;;;;;;;;;5016021;28;20286;-71
2023/10/10 00:57:08;;;;;;;60.90;45.87;;;;;;;;;;5015981;28;20648;-71
2023/10/10 00:59:44;;;;;;;62.67;47.90;;;;;;;;;;5015942;28;20737;-70
2023/10/10 01:02:10;;;;;;;67.53;50.13;;;;;;;;;;5015610;28;20187;-70
2023/10/10 01:04:48;;;;;;;66.03;50.00;;;;;;;;;;5015384;28;20261;-70
2023/10/10 01:07:18;;;;;;;67.80;50.73;;;;;;;;;;5014198;28;20195;-70
2023/10/10 01:09:56;;;;;;;72.23;52.37;;;;;;;;;;5015778;28;20156;-70
2023/10/10 01:12:35;;;;;;;67.67;51.57;;;;;;;;;;5038920;23;20210;-66
2023/10/10 01:15:07;;;;;;;71.10;49.63;;;;;;;;;;4995055;28;20259;-65
2023/10/10 01:17:33;;;;;;;67.30;51.23;;;;;;;;;;4995529;28;20207;-65
2023/10/10 01:20:17;;;;;;;72.63;53.20;;;;;;;;;;4995224;28;20552;-65
2023/10/10 01:22:46;;;;;;;75.63;54.43;;;;;;;;;;4995116;28;20239;-65
2023/10/10 01:25:42;;;;;;;73.70;54.07;;;;;;;;;;4995139;28;20173;-65
2023/10/10 01:28:41;;;;;;;84.63;55.97;;;;;;;;;;4995234;28;20210;-65
2023/10/10 01:31:04;;;;;;;70.93;55.67;;;;;;;;;;4992142;28;20251;-65
2023/10/10 01:33:41;;;;;;;82.27;56.97;;;;;;;;;;4977419;28;20201;-65
2023/10/10 01:36:21;;;;;;;85.03;61.07;;;;;;;;;;4995306;28;20163;-65
2023/10/10 01:38:56;;;;;;;78.07;59.80;;;;;;;;;;4977723;28;20183;-65
2023/10/10 01:41:31;;;;;;;86.70;60.53;;;;;;;;;;4995226;28;20651;-65
2023/10/10 01:44:10;;;;;;;88.67;59.40;;;;;;;;;;4977503;28;20276;-65
2023/10/10 01:46:36;;;;;;;86.40;58.87;;;;;;;;;;4977329;28;20540;-65
2023/10/10 01:49:02;;;;;;;83.07;60.67;;;;;;;;;;4995265;28;20231;-65
2023/10/10 01:51:35;;;;;;;89.37;65.10;;;;;;;;;;4994573;28;20240;-65
2023/10/10 01:54:13;;;;;;;87.10;63.70;;;;;;;;;;4977164;28;20235;-65
2023/10/10 01:56:39;;;;;;;90.13;65.40;;;;;;;;;;4977164;28;20726;-64
2023/10/10 01:59:10;;;;;;;95.43;67.13;;;;;;;;;;4994855;28;20638;-65
2023/10/10 02:01:36;;;;;;;98.57;68.40;;;;;;;;;;4977093;28;20204;-65
2023/10/10 02:04:06;;;;;;;97.13;68.50;;;;;;;;;;4977623;28;20563;-65
2023/10/10 02:06:34;;;;;;;101.97;70.10;;;;;;;;;;4977094;28;20181;-65
2023/10/10 02:09:19;;;;;;;104.60;70.57;;;;;;;;;;4994585;28;20173;-65
2023/10/10 02:11:54;;;;;;;97.63;68.30;;;;;;;;;;4994368;28;20164;-65
2023/10/10 02:14:25;;;;;;;102.10;68.13;;;;;;;;;;4994102;28;20638;-65
2023/10/10 02:16:54;;;;;;;97.30;68.97;;;;;;;;;;4994776;28;20164;-65
2023/10/10 02:19:27;;;;;;;101.03;70.07;;;;;;;;;;4994349;28;20702;-64
2023/10/10 02:22:04;;;;;;;105.43;71.10;;;;;;;;;;4994229;28;20250;-62
2023/10/10 02:27:04;;;;;;;111.83;72.63;;;;;;;;;;4994332;28;20172;-65
2023/10/10 02:32:09;;;;;;;116.60;74.33;;;;;;;;;;4994727;28;20184;-64
2023/10/10 02:34:36;;;;;;;115.10;74.83;;;;;;;;;;4994611;28;20199;-65
2023/10/10 02:37:13;;;;;;;108.57;72.23;;;;;;;;;;4994870;28;20176;-64
2023/10/10 02:39:42;;;;;;;107.20;71.33;;;;;;;;;;4996840;28;20168;-64
2023/10/10 02:42:18;;;;;;;105.83;71.07;;;;;;;;;;4997820;28;20212;-65
2023/10/10 02:44:46;;;;;;;113.67;74.30;;;;;;;;;;4997379;28;20596;-67
2023/10/10 02:47:13;;;;;;;108.73;70.97;;;;;;;;;;4977861;28;20176;-66
2023/10/10 02:49:42;;;;;;;116.13;76.60;;;;;;;;;;4976772;28;20189;-66
2023/10/10 02:52:08;;;;;;;108.10;74.40;;;;;;;;;;4976921;28;20837;-67
2023/10/10 02:54:43;;;;;;;114.10;75.80;;;;;;;;;;4994701;28;20224;-65
2023/10/10 02:57:27;;;;;;;111.47;72.90;;;;;;;;;;4977151;28;20247;-65
2023/10/10 03:00:00;;;;;;;102.80;72.23;;;;;;;;;;4976555;28;20176;-65
2023/10/10 03:02:40;;;;;;;122.30;77.70;;;;;;;;;;4993946;28;20670;-64
2023/10/10 03:05:07;;;;;;;105.17;74.70;;;;;;;;;;4976198;28;20196;-65
2023/10/10 03:07:35;;;;;;;120.37;78.70;;;;;;;;;;4993751;28;20587;-65
2023/10/10 03:12:30;;;;;;;116.27;78.67;;;;;;;;;;4993778;28;20196;-66
2023/10/10 03:15:12;;;;;;;114.90;74.83;;;;;;;;;;4976009;28;20180;-65
2023/10/10 03:17:49;;;;;;;115.50;75.30;;;;;;;;;;4976099;28;20176;-65
2023/10/10 03:25:47;;;;;;;109.37;73.60;;;;;;;;;;4993689;28;20223;-63
2023/10/10 03:28:21;;;;;;;116.73;75.57;;;;;;;;;;4993454;28;20251;-64
2023/10/10 03:31:23;;;;;;;114.07;74.23;;;;;;;;;;4993072;28;20184;-65
2023/10/10 03:34:18;;;;;;;113.10;71.40;;;;;;;;;;4993056;28;20192;-65
2023/10/10 03:36:44;;;;;;;117.10;76.67;;;;;;;;;;4995458;28;20160;-66
2023/10/10 05:23:50;;;;;;;90.33;57.60;;;;;;;;;;4995569;28;20211;-66
2023/10/10 05:26:19;;;;;;;96.63;55.90;;;;;;;;;;4977695;28;20268;-65
2023/10/10 05:28:48;;;;;;;81.97;53.20;;;;;;;;;;4995402;28;20173;-65
2023/10/10 05:31:21;;;;;;;82.87;54.17;;;;;;;;;;4995038;28;20176;-65
2023/10/10 05:33:50;;;;;;;81.20;51.50;;;;;;;;;;4995359;28;20279;-66
2023/10/10 05:36:18;;;;;;;79.77;52.70;;;;;;;;;;4977498;28;20212;-65
2023/10/10 05:38:46;;;;;;;76.60;49.70;;;;;;;;;;4977411;28;20216;-66
2023/10/10 05:41:12;;;;;;;76.07;49.00;;;;;;;;;;4994870;28;20200;-65
2023/10/10 05:43:39;;;;;;;83.27;50.60;;;;;;;;;;4977460;28;20278;-65
2023/10/10 05:46:05;;;;;;;77.83;51.50;;;;;;;;;;4995933;28;20323;-65
2023/10/10 05:48:32;;;;;;;65.67;46.70;;;;;;;;;;4978091;28;20177;-65
2023/10/10 05:50:59;;;;;;;72.60;46.30;;;;;;;;;;4995569;28;20622;-65
2023/10/10 05:53:25;;;;;;;66.23;46.23;;;;;;;;;;4995245;28;20192;-65
2023/10/10 05:55:58;;;;;;;68.83;48.07;;;;;;;;;;4995943;28;20177;-65
2023/10/10 05:58:24;;;;;;;72.57;48.10;;;;;;;;;;4994740;28;20153;-65
2023/10/10 06:00:50;;;;;;;70.57;47.70;;;;;;;;;;4978290;28;20184;-65
2023/10/10 06:03:16;;;;;;;64.77;46.03;;;;;;;;;;4977322;28;20200;-65
2023/10/10 06:05:49;;;;;;;70.40;47.97;;;;;;;;;;4994511;28;20512;-66
2023/10/10 06:08:15;;;;;;;66.20;46.20;;;;;;;;;;4977314;28;20234;-65
2023/10/10 06:10:41;;;;;;;70.00;46.03;;;;;;;;;;4977062;28;20611;-65
2023/10/10 06:13:07;;;;;;;64.23;46.10;;;;;;;;;;4977175;28;20224;-65
2023/10/10 06:15:36;;;;;;;83.10;51.63;;;;;;;;;;4977008;28;20192;-66
2023/10/10 06:18:11;;;;;;;67.43;47.80;;;;;;;;;;4976802;28;20204;-64
2023/10/10 06:20:41;;;;;;;78.07;53.27;;;;;;;;;;4977076;28;20180;-64
2023/10/10 06:23:07;;;;;;;60.20;42.40;;;;;;;;;;4993851;28;20319;-65
2023/10/10 06:25:33;;;;;;;66.97;45.47;;;;;;;;;;4976478;28;20188;-66
2023/10/10 06:28:00;;;;;;;53.07;37.77;;;;;;;;;;4994227;28;20199;-65
2023/10/10 06:30:26;;;;;;;47.17;33.00;;;;;;;;;;4993742;28;20563;-65
2023/10/10 06:33:09;;;;;;;46.43;31.60;;;;;;;;;;4975875;28;20641;-65
2023/10/10 06:35:38;;;;;;;44.37;29.13;;;;;;;;;;4976155;28;20188;-65
2023/10/10 06:38:12;;;;;;;41.30;29.73;;;;;;;;;;4993568;28;20187;-65
2023/10/10 06:40:52;;;;;;;40.07;28.33;;;;;;;;;;4994109;28;20225;-65
2023/10/10 06:43:18;;;;;;;34.77;26.97;;;;;;;;;;4993638;28;20262;-65
2023/10/10 06:45:52;;;;;;;43.23;29.33;;;;;;;;;;4976110;28;20176;-65
2023/10/10 06:48:21;;;;;;;36.63;28.80;;;;;;;;;;4976112;28;20273;-65
2023/10/10 06:50:49;;;;;;;48.37;30.63;;;;;;;;;;4976097;28;20180;-65
2023/10/10 06:53:34;;;;;;;49.53;33.37;;;;;;;;;;4975810;28;20204;-65
2023/10/10 06:56:15;;;;;;;52.40;30.67;;;;;;;;;;4976551;28;20228;-64
2023/10/10 06:58:44;;;;;;;77.50;47.03;;;;;;;;;;4976638;28;20247;-65
2023/10/10 07:01:19;;;;;;;81.27;49.13;;;;;;;;;;4975748;28;20208;-65
2023/10/10 07:03:54;;;;;;;61.60;44.07;;;;;;;;;;4993493;28;20196;-65
2023/10/10 07:06:20;;;;;;;64.83;42.87;;;;;;;;;;4975774;28;20631;-65
2023/10/10 07:08:49;;;;;;;82.63;51.07;;;;;;;;;;4975881;28;20211;-65
2023/10/10 07:11:20;;;;;;;56.37;38.17;;;;;;;;;;4975700;28;20658;-65
2023/10/10 07:13:58;;;;;;;56.60;34.83;;;;;;;;;;4976309;28;20243;-65
2023/10/10 07:16:24;;;;;;;43.97;29.93;;;;;;;;;;4975795;28;20191;-65
2023/10/10 07:18:56;;;;;;;53.07;29.70;;;;;;;;;;4975587;28;20192;-65
2023/10/10 07:21:36;;;;;;;47.63;34.50;;;;;;;;;;4975877;28;20557;-65
2023/10/10 07:24:13;;;;;;;41.13;27.37;;;;;;;;;;4976101;28;20287;-65
2023/10/10 07:26:42;;;;;;;35.37;22.20;;;;;;;;;;4975529;28;20183;-65
2023/10/10 07:29:27;;;;;;;32.47;22.33;;;;;;;;;;4975564;28;20570;-65
2023/10/10 07:34:42;;;;;;;27.20;21.73;;;;;;;;;;4993400;28;20549;-65
2023/10/10 07:37:08;;;;;;;32.47;20.90;;;;;;;;;;4992947;28;20317;-65
2023/10/10 07:39:36;;;;;;;27.17;18.93;;;;;;;;;;4993145;28;20286;-65
2023/10/10 07:42:03;;;;;;;24.33;19.10;;;;;;;;;;4993034;28;20549;-65
2023/10/10 07:44:30;;;;;;;28.10;19.00;;;;;;;;;;4993115;28;20247;-65
2023/10/10 07:47:20;;;;;;;25.90;17.50;;;;;;;;;;4975577;28;20180;-65
2023/10/10 07:49:50;;;;;;;20.17;16.30;;;;;;;;;;4993168;28;20159;-65
2023/10/10 07:52:20;;;;;;;24.83;15.60;;;;;;;;;;4975279;28;20184;-65
2023/10/10 07:54:46;;;;;;;24.77;15.87;;;;;;;;;;4975188;28;20794;-65
2023/10/10 07:57:22;;;;;;;21.77;14.80;;;;;;;;;;4992877;28;20215;-65
2023/10/10 07:59:48;;;;;;;21.40;13.70;;;;;;;;;;4992919;28;20210;-65
2023/10/10 08:02:24;;;;;;;19.63;14.80;;;;;;;;;;4975167;28;20204;-65
2023/10/10 08:04:50;;;;;;;23.97;13.73;;;;;;;;;;4975307;28;20259;-65
2023/10/10 08:07:20;;;;;;;22.33;14.67;;;;;;;;;;4975334;28;20192;-65
2023/10/10 08:09:48;;;;;;;19.50;13.83;;;;;;;;;;4992664;28;20177;-65
2023/10/10 08:12:14;;;;;;;18.77;13.67;;;;;;;;;;4993492;28;20533;-65
2023/10/10 08:14:41;;;;;;;20.67;13.10;;;;;;;;;;4975410;28;20228;-65
2023/10/10 08:17:19;;;;;;;24.70;13.23;;;;;;;;;;4975326;28;20185;-65
2023/10/10 08:19:51;;;;;;;19.33;12.77;;;;;;;;;;4992873;28;20200;-65
2023/10/10 08:22:18;;;;;;;21.57;13.20;;;;;;;;;;4976182;28;20211;-65
2023/10/10 08:24:44;;;;;;;22.30;13.10;;;;;;;;;;4996465;28;20568;-66
2023/10/10 08:27:11;;;;;;;18.73;13.00;;;;;;;;;;4996430;28;20180;-65
2023/10/10 08:29:38;;;;;;;20.43;13.03;;;;;;;;;;4979311;28;20244;-65
2023/10/10 08:32:08;;;;;;;18.40;13.17;;;;;;;;;;4996704;28;20176;-66
2023/10/10 08:34:38;;;;;;;26.00;13.90;;;;;;;;;;4997500;28;20196;-65
2023/10/10 08:37:04;;;;;;;27.27;13.83;;;;;;;;;;4997922;28;20575;-65
2023/10/10 08:39:36;;;;;;;17.87;13.23;;;;;;;;;;4980628;28;20185;-65
2023/10/10 08:42:10;;;;;;;18.53;13.47;;;;;;;;;;4998339;28;20200;-64
2023/10/10 08:44:38;;;;;;;23.03;12.47;;;;;;;;;;4998231;28;20663;-65
2023/10/10 08:47:06;;;;;;;24.90;12.63;;;;;;;;;;4997258;28;20173;-65
2023/10/10 08:49:32;;;;;;;24.97;12.97;;;;;;;;;;4978514;28;20184;-66
2023/10/10 08:52:01;;;;;;;16.57;11.93;;;;;;;;;;4978698;28;20264;-65
2023/10/10 08:54:28;;;;;;;18.73;13.33;;;;;;;;;;4978473;28;20205;-65
2023/10/10 08:57:00;;;;;;;18.57;12.10;;;;;;;;;;4995732;28;20181;-65
2023/10/10 08:59:28;;;;;;;18.57;12.20;;;;;;;;;;4996314;28;20252;-65
2023/10/10 09:01:55;;;;;;;16.53;11.23;;;;;;;;;;4978194;28;20230;-66
2023/10/10 09:04:30;;;;;;;17.87;12.40;;;;;;;;;;4978240;28;20208;-66
2023/10/10 09:09:35;;;;;;;22.27;12.27;;;;;;;;;;4995800;28;20187;-65
2023/10/10 09:12:14;;;;;;;20.13;12.00;;;;;;;;;;4978543;28;20264;-65
2023/10/10 09:14:51;;;;;;;17.97;11.50;;;;;;;;;;4978292;28;20266;-64
2023/10/10 09:17:35;;;;;;;19.57;11.67;;;;;;;;;;4977892;28;20180;-66
2023/10/10 09:20:17;;;;;;;16.33;11.50;;;;;;;;;;4995666;28;20164;-64
2023/10/10 09:22:44;;;;;;;15.13;11.43;;;;;;;;;;4977785;28;20223;-65
2023/10/10 09:25:19;;;;;;;19.50;11.30;;;;;;;;;;4977828;28;20180;-65
2023/10/10 09:28:04;;;;;;;19.03;11.00;;;;;;;;;;4995587;28;20544;-64
2023/10/10 09:30:32;;;;;;;18.93;11.13;;;;;;;;;;4995022;28;20176;-65
2023/10/10 09:33:13;;;;;;;18.40;11.40;;;;;;;;;;4994518;28;20199;-66
2023/10/10 09:35:40;;;;;;;22.67;12.17;;;;;;;;;;4995084;28;20197;-65
2023/10/10 09:38:09;;;;;;;19.87;10.90;;;;;;;;;;4994947;28;20258;-65
2023/10/10 09:40:39;;;;;;;22.30;11.70;;;;;;;;;;4994944;28;20181;-64
2023/10/10 09:43:11;;;;;;;20.60;12.27;;;;;;;;;;4977473;28;20217;-66
2023/10/10 09:45:55;;;;;;;18.30;10.73;;;;;;;;;;4994926;28;20228;-64
2023/10/10 09:48:28;;;;;;;19.07;10.57;;;;;;;;;;4995024;28;20217;-66
2023/10/10 09:51:08;;;;;;;22.13;10.93;;;;;;;;;;4995237;28;20615;-65
2023/10/10 09:53:34;;;;;;;17.87;10.30;;;;;;;;;;4977179;28;20582;-65
2023/10/10 09:56:03;;;;;;;16.50;10.17;;;;;;;;;;4977191;28;20653;-65
2023/10/10 09:58:29;;;;;;;15.60;9.03;;;;;;;;;;4977218;28;20196;-66
2023/10/10 10:01:14;;;;;;;14.23;9.47;;;;;;;;;;4994693;28;20181;-66
2023/10/10 10:03:49;;;;;;;17.40;10.47;;;;;;;;;;4977994;28;20568;-66
2023/10/10 10:06:36;;;;;;;20.23;9.90;;;;;;;;;;4994811;28;20192;-66
2023/10/10 10:09:20;;;;;;;14.07;10.00;;;;;;;;;;4976965;28;20272;-66
2023/10/10 10:12:08;;;;;;;17.30;10.33;;;;;;;;;;4977353;28;20191;-66
2023/10/10 10:14:46;;;;;;;15.23;9.00;;;;;;;;;;4994547;28;20220;-66
2023/10/10 10:17:19;;;;;;;16.90;10.13;;;;;;;;;;4994408;28;20172;-66
2023/10/10 10:19:45;;;;;;;15.60;9.17;;;;;;;;;;4976878;28;20627;-66
2023/10/10 10:22:18;;;;;;;15.67;9.70;;;;;;;;;;4994069;28;20736;-66
2023/10/10 10:24:47;;;;;;;15.27;9.43;;;;;;;;;;4994353;28;20650;-65
2023/10/10 10:27:35;;;;;;;15.47;9.33;;;;;;;;;;4994144;28;20196;-66
2023/10/10 10:32:49;;;;;;;16.83;8.63;;;;;;;;;;4994697;28;20697;-65
2023/10/10 10:35:36;;;;;;;15.60;8.37;;;;;;;;;;4976802;28;20208;-65
2023/10/10 10:38:06;;;;;;;13.20;7.90;;;;;;;;;;4976431;28;20176;-66
2023/10/10 10:43:05;;;;;;;12.97;8.30;;;;;;;;;;4994087;28;20283;-67
2023/10/10 10:45:41;;;;;;;16.57;8.20;;;;;;;;;;4993452;28;20183;-68
2023/10/10 10:48:09;;;;;;;14.20;8.70;;;;;;;;;;4976287;28;20168;-68
2023/10/10 10:50:46;;;;;;;14.30;8.40;;;;;;;;;;4976197;28;20610;-68
2023/10/10 10:53:31;;;;;;;17.53;8.17;;;;;;;;;;4994029;28;20278;-68
2023/10/10 10:56:37;;;;;;;16.20;8.53;;;;;;;;;;4994043;28;20612;-68
2023/10/10 11:01:26;;;;;;;13.60;9.00;;;;;;;;;;4993596;28;20270;-67
2023/10/10 11:03:52;;;;;;;13.83;9.07;;;;;;;;;;4993918;28;20694;-68
2023/10/10 11:06:20;;;;;;;13.43;7.87;;;;;;;;;;4993537;28;20188;-67
2023/10/10 11:11:37;;;;;;;18.23;7.57;;;;;;;;;;4993309;28;20180;-67
2023/10/10 11:16:45;;;;;;;13.20;8.17;;;;;;;;;;4993388;28;20171;-69
2023/10/10 11:19:38;;;;;;;17.93;7.90;;;;;;;;;;4993384;28;20172;-68
2023/10/10 11:22:05;;;;;;;13.03;7.70;;;;;;;;;;4993187;28;20216;-68
2023/10/10 11:24:31;;;;;;;11.47;7.40;;;;;;;;;;4975467;28;20204;-68
2023/10/10 11:29:45;;;;;;;12.10;6.50;;;;;;;;;;4993872;28;20195;-68
2023/10/10 11:32:24;;;;;;;12.47;6.07;;;;;;;;;;4993289;28;20179;-68
2023/10/10 11:34:57;;;;;;;10.90;6.53;;;;;;;;;;4975585;28;20259;-68
2023/10/10 11:37:26;;;;;;;11.13;5.70;;;;;;;;;;4975685;28;20239;-68
2023/10/10 11:40:19;;;;;;;12.70;6.20;;;;;;;;;;4993497;28;20698;-68
2023/10/10 11:42:47;;;;;;;8.23;6.40;;;;;;;;;;4993298;28;20214;-68
2023/10/10 11:45:19;;;;;;;13.50;6.73;;;;;;;;;;4992998;28;20173;-68
2023/10/10 11:47:51;;;;;;;9.13;6.50;;;;;;;;;;4993139;28;20157;-68
2023/10/10 11:50:21;;;;;;;10.57;6.20;;;;;;;;;;4975706;28;20248;-67
2023/10/10 11:52:58;;;;;;;12.40;6.37;;;;;;;;;;4993384;28;20224;-68
2023/10/10 11:55:27;;;;;;;11.47;6.50;;;;;;;;;;4992958;28;20179;-68
2023/10/10 11:58:07;;;;;;;11.60;5.63;;;;;;;;;;4995256;28;20180;-68
2023/10/10 12:00:43;;;;;;;8.53;6.40;;;;;;;;;;4979563;28;20176;-68
2023/10/10 12:03:19;;;;;;;9.50;6.03;;;;;;;;;;4979101;28;20277;-68
2023/10/10 12:05:51;;;;;;;9.93;6.37;;;;;;;;;;4996690;28;20164;-69
2023/10/10 12:08:24;;;;;;;8.83;5.70;;;;;;;;;;4996862;28;20163;-68
2023/10/10 12:11:03;;;;;;;9.83;6.20;;;;;;;;;;4979147;28;20177;-68
2023/10/10 12:15:55;;;;;;;12.83;6.07;;;;;;;;;;4996455;28;20176;-67
2023/10/10 12:18:21;;;;;;;10.97;5.83;;;;;;;;;;4997117;28;20287;-68
2023/10/10 12:20:47;;;;;;;11.93;6.73;;;;;;;;;;4979166;28;20666;-69
2023/10/10 12:23:14;;;;;;;15.87;6.70;;;;;;;;;;4997109;28;20590;-68
2023/10/10 12:25:43;;;;;;;12.43;5.90;;;;;;;;;;4979094;28;20707;-68
2023/10/10 12:28:18;;;;;;;11.23;6.33;;;;;;;;;;4996050;28;20187;-67
2023/10/10 12:30:44;;;;;;;12.03;6.27;;;;;;;;;;4996771;28;20165;-68
2023/10/10 12:33:15;;;;;;;14.77;6.90;;;;;;;;;;4978670;28;20204;-68
2023/10/10 12:35:43;;;;;;;8.10;5.73;;;;;;;;;;4996499;28;20169;-68
2023/10/10 12:38:10;;;;;;;8.53;5.83;;;;;;;;;;4996280;28;20601;-68
2023/10/10 12:40:36;;;;;;;8.80;6.27;;;;;;;;;;4996314;28;20190;-68
2023/10/10 12:43:03;;;;;;;7.87;5.93;;;;;;;;;;4978443;28;20242;-68
2023/10/10 12:45:29;;;;;;;9.87;5.80;;;;;;;;;;4978609;28;20238;-68
2023/10/10 12:47:58;;;;;;;12.50;5.80;;;;;;;;;;4978736;28;20267;-68
2023/10/10 12:50:29;;;;;;;16.63;5.60;;;;;;;;;;4996374;28;20188;-68
2023/10/10 12:53:07;;;;;;;10.90;5.70;;;;;;;;;;4978731;28;20203;-67
2023/10/10 12:55:49;;;;;;;13.17;6.37;;;;;;;;;;4978737;28;20180;-68
2023/10/10 12:58:20;;;;;;;9.37;6.30;;;;;;;;;;4996478;28;20296;-68
2023/10/10 13:00:52;;;;;;;11.63;6.07;;;;;;;;;;4978497;28;20169;-68
2023/10/10 13:03:31;;;;;;;9.13;5.77;;;;;;;;;;4995830;28;20214;-68
2023/10/10 13:05:58;;;;;;;14.33;7.30;;;;;;;;;;4996146;28;20223;-68
2023/10/10 13:08:38;;;;;;;15.60;7.10;;;;;;;;;;4995515;28;20188;-68
2023/10/10 13:11:12;;;;;;;12.97;6.40;;;;;;;;;;4995833;28;20160;-68
2023/10/10 13:13:45;;;;;;;10.27;6.43;;;;;;;;;;4978056;28;20243;-68
2023/10/10 13:18:56;;;;;;;9.37;6.20;;;;;;;;;;4995672;28;20171;-68
2023/10/10 13:21:23;;;;;;;10.77;5.93;;;;;;;;;;4977796;28;20212;-68
2023/10/10 13:23:50;;;;;;;16.07;6.80;;;;;;;;;;4992253;23;20239;-71
2023/10/10 13:26:16;;;;;;;11.73;5.97;;;;;;;;;;4995645;28;20667;-71
2023/10/10 13:28:44;;;;;;;12.10;5.97;;;;;;;;;;4978362;28;20180;-70
2023/10/10 13:31:14;;;;;;;9.33;6.47;;;;;;;;;;4978312;28;20180;-71
2023/10/10 13:33:40;;;;;;;11.63;6.43;;;;;;;;;;4978250;28;20274;-70
2023/10/10 13:36:11;;;;;;;16.83;6.67;;;;;;;;;;4995613;28;20169;-70
2023/10/10 13:38:37;;;;;;;11.87;5.90;;;;;;;;;;4995628;28;20179;-71
2023/10/10 13:41:08;;;;;;;8.83;6.33;;;;;;;;;;4978097;28;20263;-71
2023/10/10 13:43:34;;;;;;;11.07;6.13;;;;;;;;;;4995627;28;20189;-71
2023/10/10 13:46:02;;;;;;;10.07;6.30;;;;;;;;;;4995747;28;20231;-71
2023/10/10 13:48:30;;;;;;;14.67;7.07;;;;;;;;;;4995426;28;20195;-71
2023/10/10 13:50:59;;;;;;;11.80;6.77;;;;;;;;;;4977996;28;20176;-71
2023/10/10 13:53:26;;;;;;;9.83;6.53;;;;;;;;;;4996160;28;20189;-71
2023/10/10 13:55:52;;;;;;;12.00;6.33;;;;;;;;;;4996103;28;20176;-71
2023/10/10 13:58:18;;;;;;;14.57;7.73;;;;;;;;;;4978290;28;20177;-71
2023/10/10 14:00:55;;;;;;;10.90;6.67;;;;;;;;;;4995962;28;20184;-71
2023/10/10 14:03:35;;;;;;;12.97;6.83;;;;;;;;;;4995912;28;20208;-72
2023/10/10 14:06:07;;;;;;;10.00;6.70;;;;;;;;;;4994893;28;20165;-71
2023/10/10 14:08:33;;;;;;;11.43;6.43;;;;;;;;;;4977411;28;20212;-71
2023/10/10 14:11:00;;;;;;;12.50;6.97;;;;;;;;;;4977342;28;20180;-71
2023/10/10 14:13:27;;;;;;;12.03;7.10;;;;;;;;;;4994945;28;20729;-71
2023/10/10 14:15:57;;;;;;;11.47;6.70;;;;;;;;;;4995207;28;20636;-72
2023/10/10 14:18:23;;;;;;;9.37;6.20;;;;;;;;;;4977557;28;20184;-71
2023/10/10 14:20:50;;;;;;;8.87;6.70;;;;;;;;;;4994442;28;20667;-72
2023/10/10 14:23:24;;;;;;;13.97;6.57;;;;;;;;;;4977190;28;20286;-72
2023/10/10 14:25:50;;;;;;;12.83;6.50;;;;;;;;;;4994697;28;20645;-72
2023/10/10 14:28:16;;;;;;;12.67;6.60;;;;;;;;;;4994938;28;20187;-71
2023/10/10 14:30:49;;;;;;;12.27;6.73;;;;;;;;;;4977304;28;20181;-72
2023/10/10 14:33:16;;;;;;;10.03;6.50;;;;;;;;;;4977035;28;20208;-71
2023/10/10 14:35:43;;;;;;;18.17;6.80;;;;;;;;;;4994344;28;20176;-72
2023/10/10 14:38:12;;;;;;;12.00;5.90;;;;;;;;;;4994529;28;20176;-71
2023/10/10 14:40:40;;;;;;;15.57;6.83;;;;;;;;;;4976940;28;20666;-72
2023/10/10 14:43:06;;;;;;;14.23;7.37;;;;;;;;;;4976503;28;20243;-72
2023/10/10 14:45:34;;;;;;;14.13;7.03;;;;;;;;;;4994087;28;20176;-71
2023/10/10 14:48:04;;;;;;;11.20;6.93;;;;;;;;;;4994853;28;20176;-72
2023/10/10 14:50:36;;;;;;;24.03;6.30;;;;;;;;;;4977312;28;20180;-72
2023/10/10 14:53:08;;;;;;;10.90;6.80;;;;;;;;;;4993977;28;20319;-71
2023/10/10 14:55:39;;;;;;;8.77;6.23;;;;;;;;;;4994673;28;20211;-71
2023/10/10 14:58:09;;;;;;;16.90;6.80;;;;;;;;;;4994044;28;20172;-71
2023/10/10 15:00:41;;;;;;;14.40;6.90;;;;;;;;;;4976669;28;20266;-71
2023/10/10 15:03:15;;;;;;;11.67;6.37;;;;;;;;;;4994242;28;20211;-71
2023/10/10 15:05:51;;;;;;;13.07;6.13;;;;;;;;;;4993911;28;20211;-71
2023/10/10 15:08:20;;;;;;;10.17;6.73;;;;;;;;;;4994048;28;20655;-71
2023/10/10 15:10:47;;;;;;;10.87;6.73;;;;;;;;;;4976394;28;20275;-71
2023/10/10 15:13:15;;;;;;;14.07;6.47;;;;;;;;;;4993765;28;20671;-71
2023/10/10 15:15:48;;;;;;;16.83;6.50;;;;;;;;;;4994004;28;20766;-71
2023/10/10 15:18:17;;;;;;;10.90;6.43;;;;;;;;;;4976443;28;20654;-71
2023/10/10 15:20:50;;;;;;;11.53;6.63;;;;;;;;;;4993954;28;20183;-71
2023/10/10 15:23:20;;;;;;;11.97;6.77;;;;;;;;;;4993781;28;20234;-71
2023/10/10 15:25:52;;;;;;;8.87;6.60;;;;;;;;;;4976165;28;20187;-71
2023/10/10 15:28:18;;;;;;;11.03;6.47;;;;;;;;;;4994282;28;20484;-71
2023/10/10 15:30:44;;;;;;;10.60;5.87;;;;;;;;;;4993561;28;20555;-71
2023/10/10 15:33:10;;;;;;;9.07;5.57;;;;;;;;;;4992856;28;20205;-71
2023/10/10 15:35:39;;;;;;;13.00;6.03;;;;;;;;;;4993860;28;20192;-71
2023/10/10 15:38:11;;;;;;;8.47;5.97;;;;;;;;;;4993721;28;20180;-71
2023/10/10 15:40:39;;;;;;;12.07;5.13;;;;;;;;;;4994162;28;20555;-71
2023/10/10 15:43:05;;;;;;;12.23;5.43;;;;;;;;;;4996486;28;20215;-71
2023/10/10 15:45:37;;;;;;;8.73;6.20;;;;;;;;;;4977372;28;20181;-71
2023/10/10 15:48:04;;;;;;;11.17;5.93;;;;;;;;;;4976492;28;20219;-71
2023/10/10 15:50:34;;;;;;;7.97;5.20;;;;;;;;;;4976164;28;20351;-71
2023/10/10 15:53:00;;;;;;;11.03;5.50;;;;;;;;;;4993708;28;20200;-71
2023/10/10 15:55:25;;;;;;;9.53;6.20;;;;;;;;;;4993747;28;20701;-71
2023/10/10 15:57:52;;;;;;;9.63;5.97;;;;;;;;;;4975952;28;20630;-71
2023/10/10 16:00:21;;;;;;;9.37;5.93;;;;;;;;;;4993386;28;20196;-71
2023/10/10 16:02:52;;;;;;;8.40;5.70;;;;;;;;;;4976100;28;20196;-71
2023/10/10 16:05:18;;;;;;;10.43;5.00;;;;;;;;;;4994569;28;20619;-71
2023/10/10 16:07:46;;;;;;;9.83;5.47;;;;;;;;;;4994871;28;20234;-71
2023/10/10 16:10:12;;;;;;;11.97;6.13;;;;;;;;;;4995856;28;20196;-70
2023/10/10 16:12:42;;;;;;;9.80;6.27;;;;;;;;;;4977379;28;20683;-71
2023/10/10 16:15:08;;;;;;;9.67;5.70;;;;;;;;;;4994351;28;20184;-71
2023/10/10 16:17:35;;;;;;;10.13;5.70;;;;;;;;;;4994574;28;20267;-72
2023/10/10 16:20:05;;;;;;;10.80;6.10;;;;;;;;;;4976657;28;20276;-72
2023/10/10 16:22:35;;;;;;;13.40;6.60;;;;;;;;;;4993671;28;20246;-70
2023/10/10 16:25:01;;;;;;;13.43;7.47;;;;;;;;;;4976267;28;20218;-69
2023/10/10 16:27:27;;;;;;;13.67;7.73;;;;;;;;;;4976842;28;20180;-73
2023/10/10 16:29:55;;;;;;;12.80;8.57;;;;;;;;;;4994035;28;20698;-70
2023/10/10 16:32:21;;;;;;;14.23;7.90;;;;;;;;;;4994000;28;20177;-69
2023/10/10 16:34:47;;;;;;;11.40;7.27;;;;;;;;;;4993833;28;20203;-69
2023/10/10 16:37:16;;;;;;;14.73;7.80;;;;;;;;;;4994049;28;20552;-70
2023/10/10 16:39:45;;;;;;;18.13;10.10;;;;;;;;;;4975670;28;20185;-69
2023/10/10 16:42:11;;;;;;;18.27;8.30;;;;;;;;;;4993186;28;20201;-70
2023/10/10 16:44:37;;;;;;;11.70;7.80;;;;;;;;;;4979096;28;20670;-70
2023/10/10 16:47:04;;;;;;;13.63;8.10;;;;;;;;;;4996588;28;20532;-70
2023/10/10 16:49:30;;;;;;;13.70;9.77;;;;;;;;;;4996823;28;20184;-70
2023/10/10 16:51:56;;;;;;;16.20;9.50;;;;;;;;;;4996749;28;20215;-70
2023/10/10 16:54:22;;;;;;;22.47;12.03;;;;;;;;;;4978856;28;20239;-71
2023/10/10 16:56:48;;;;;;;19.50;13.87;;;;;;;;;;4997069;28;20180;-70
2023/10/10 16:59:14;;;;;;;23.20;14.20;;;;;;;;;;4996419;28;20758;-70
2023/10/10 17:01:42;;;;;;;21.30;14.30;;;;;;;;;;4996379;28;20219;-70
2023/10/10 17:04:08;;;;;;;23.27;13.90;;;;;;;;;;4996020;28;20239;-70
2023/10/10 17:06:35;;;;;;;19.87;11.70;;;;;;;;;;4978476;28;20595;-70
2023/10/10 17:09:03;;;;;;;21.07;11.20;;;;;;;;;;4996963;28;20200;-70
2023/10/10 17:11:29;;;;;;;21.60;11.13;;;;;;;;;;4978817;28;20275;-72
2023/10/10 17:13:55;;;;;;;18.50;10.10;;;;;;;;;;4996210;28;20227;-71